Time;durP1;ratioP1;P1;durP2;ratioP2;P2;SDS_P1;SDS_P2;PMS_P1;PMS_P2;Temp;Humidity;BMP_temperature;BMP_pressure;BME280_temperature;BME280_humidity;BME280_pressure;Samples;Min_cycle;Max_cycle;Signal;HPM_P1;HPM_P2
2021/11/22 00:01:16;;;;;;;24.83;16.55;;;;;;;;;;5054215;28;20491;-72
2021/11/22 00:03:41;;;;;;;26.30;17.98;;;;;;;;;;5036880;28;20076;-71
2021/11/22 00:06:07;;;;;;;27.33;17.25;;;;;;;;;;5054299;28;20037;-71
2021/11/22 00:08:32;;;;;;;25.38;17.73;;;;;;;;;;5054246;28;20036;-72
2021/11/22 00:10:59;;;;;;;28.10;17.67;;;;;;;;;;5054141;28;20045;-72
2021/11/22 00:13:26;;;;;;;26.48;18.13;;;;;;;;;;5054243;28;20049;-72
2021/11/22 00:15:52;;;;;;;29.42;18.25;;;;;;;;;;5036378;28;20048;-75
2021/11/22 00:18:18;;;;;;;29.60;18.70;;;;;;;;;;5019839;28;20396;-74
2021/11/22 00:20:44;;;;;;;29.88;19.80;;;;;;;;;;5054226;28;20049;-75
2021/11/22 00:23:09;;;;;;;28.30;19.63;;;;;;;;;;5054180;28;20029;-74
2021/11/22 00:25:35;;;;;;;26.27;17.48;;;;;;;;;;5035933;28;20033;-74
2021/11/22 00:28:01;;;;;;;26.15;17.23;;;;;;;;;;5053920;28;20029;-74
2021/11/22 00:30:37;;;;;;;25.38;17.48;;;;;;;;;;5036159;28;20140;-75
2021/11/22 00:33:08;;;;;;;26.02;17.63;;;;;;;;;;5036276;28;20140;-74
2021/11/22 00:35:50;;;;;;;26.08;16.45;;;;;;;;;;5054047;28;20048;-74
2021/11/22 00:38:17;;;;;;;27.05;17.70;;;;;;;;;;5053736;28;20396;-73
2021/11/22 00:40:43;;;;;;;25.25;17.23;;;;;;;;;;5053914;28;20032;-73
2021/11/22 00:43:10;;;;;;;24.10;17.65;;;;;;;;;;5053635;28;20037;-73
2021/11/22 00:45:35;;;;;;;27.45;18.05;;;;;;;;;;5053609;28;20392;-73
2021/11/22 00:48:01;;;;;;;28.42;18.17;;;;;;;;;;5035516;28;20045;-73
2021/11/22 00:50:28;;;;;;;24.73;16.50;;;;;;;;;;5053118;28;20116;-73
2021/11/22 00:52:54;;;;;;;24.88;16.42;;;;;;;;;;5053763;28;20056;-73
2021/11/22 00:55:19;;;;;;;25.95;17.25;;;;;;;;;;5035984;28;20033;-73
2021/11/22 00:57:45;;;;;;;25.90;17.20;;;;;;;;;;5053708;28;20489;-73
2021/11/22 01:00:11;;;;;;;25.38;16.38;;;;;;;;;;5053206;28;20492;-73
2021/11/22 01:02:37;;;;;;;24.63;17.08;;;;;;;;;;5053628;28;20039;-73
2021/11/22 01:05:04;;;;;;;27.30;17.02;;;;;;;;;;5053175;28;20384;-73
2021/11/22 01:07:29;;;;;;;28.98;17.65;;;;;;;;;;5053200;28;20041;-73
2021/11/22 01:09:55;;;;;;;25.30;17.10;;;;;;;;;;5053265;28;20025;-73
2021/11/22 01:12:20;;;;;;;30.85;18.67;;;;;;;;;;5035505;28;20044;-72
2021/11/22 01:14:46;;;;;;;30.30;19.70;;;;;;;;;;5053307;28;20417;-72
2021/11/22 01:17:11;;;;;;;28.10;19.02;;;;;;;;;;5053115;28;20036;-73
2021/11/22 01:19:36;;;;;;;27.40;18.40;;;;;;;;;;5053171;28;20453;-73
2021/11/22 01:22:02;;;;;;;28.02;18.80;;;;;;;;;;5035133;28;20087;-73
2021/11/22 01:24:27;;;;;;;27.63;18.00;;;;;;;;;;5053320;28;20021;-73
2021/11/22 01:26:54;;;;;;;29.23;19.25;;;;;;;;;;5053094;28;20051;-72
2021/11/22 01:29:19;;;;;;;28.95;19.33;;;;;;;;;;5052886;28;20124;-73
2021/11/22 01:31:45;;;;;;;27.08;18.90;;;;;;;;;;5035036;28;20123;-72
2021/11/22 01:34:11;;;;;;;29.00;18.67;;;;;;;;;;5052868;28;20419;-72
2021/11/22 01:36:37;;;;;;;27.65;18.30;;;;;;;;;;5052887;28;20036;-72
2021/11/22 01:39:03;;;;;;;26.95;18.63;;;;;;;;;;5053839;28;20124;-72
2021/11/22 01:41:28;;;;;;;31.90;20.05;;;;;;;;;;5057118;28;20061;-72
2021/11/22 01:43:54;;;;;;;28.98;19.63;;;;;;;;;;5056901;28;20116;-72
2021/11/22 01:46:20;;;;;;;26.48;18.80;;;;;;;;;;5057109;28;20037;-72
2021/11/22 01:48:46;;;;;;;27.30;19.00;;;;;;;;;;5056944;28;20037;-73
2021/11/22 01:51:13;;;;;;;28.67;18.40;;;;;;;;;;5057060;28;20048;-73
2021/11/22 01:53:39;;;;;;;27.55;18.60;;;;;;;;;;5039241;28;20040;-74
2021/11/22 01:56:04;;;;;;;27.98;17.85;;;;;;;;;;5056923;28;20040;-74
2021/11/22 01:58:30;;;;;;;27.15;18.15;;;;;;;;;;5038977;28;20128;-74
2021/11/22 02:00:56;;;;;;;28.70;18.65;;;;;;;;;;5056539;28;20397;-74
2021/11/22 02:03:21;;;;;;;27.80;17.95;;;;;;;;;;5057006;28;20144;-74
2021/11/22 02:05:51;;;;;;;27.17;18.05;;;;;;;;;;5056666;28;20029;-73
2021/11/22 02:08:17;;;;;;;26.10;17.85;;;;;;;;;;5038932;28;20031;-73
2021/11/22 02:10:42;;;;;;;27.58;18.55;;;;;;;;;;5056807;28;20037;-73
2021/11/22 02:13:08;;;;;;;29.33;19.17;;;;;;;;;;5056663;28;20033;-74
2021/11/22 02:15:33;;;;;;;26.08;18.17;;;;;;;;;;5056135;28;20037;-73
2021/11/22 02:17:59;;;;;;;26.27;17.95;;;;;;;;;;5056544;28;20040;-73
2021/11/22 02:20:26;;;;;;;28.95;18.02;;;;;;;;;;5056471;28;20500;-73
2021/11/22 02:22:57;;;;;;;26.17;17.40;;;;;;;;;;5056531;28;20029;-74
2021/11/22 02:25:24;;;;;;;29.30;17.67;;;;;;;;;;5056077;28;20037;-75
2021/11/22 02:27:50;;;;;;;28.17;17.55;;;;;;;;;;5056301;28;20120;-74
2021/11/22 02:30:17;;;;;;;26.85;17.38;;;;;;;;;;5056081;28;20511;-75
2021/11/22 02:32:43;;;;;;;28.23;18.23;;;;;;;;;;5056240;28;20057;-74
2021/11/22 02:35:12;;;;;;;25.85;17.90;;;;;;;;;;5055824;28;20115;-74
2021/11/22 02:37:37;;;;;;;28.80;17.45;;;;;;;;;;5055953;28;20483;-73
2021/11/22 02:40:05;;;;;;;28.92;17.38;;;;;;;;;;5056045;28;20041;-74
2021/11/22 02:42:32;;;;;;;25.63;16.40;;;;;;;;;;5055793;28;20029;-74
2021/11/22 02:44:58;;;;;;;25.50;17.45;;;;;;;;;;5055919;28;20029;-73
2021/11/22 02:47:24;;;;;;;27.25;17.90;;;;;;;;;;5055534;28;20111;-74
2021/11/22 02:49:50;;;;;;;25.60;16.85;;;;;;;;;;5055635;28;20460;-74
2021/11/22 02:52:16;;;;;;;27.85;17.38;;;;;;;;;;5055707;28;20029;-75
2021/11/22 02:54:42;;;;;;;28.90;17.70;;;;;;;;;;5055691;28;20041;-75
2021/11/22 02:57:08;;;;;;;26.83;17.85;;;;;;;;;;5055817;28;20031;-74
2021/11/22 02:59:33;;;;;;;30.45;20.10;;;;;;;;;;5038048;28;20045;-74
2021/11/22 03:01:59;;;;;;;27.98;17.90;;;;;;;;;;5037761;28;20029;-74
2021/11/22 03:04:52;;;;;;;28.67;19.35;;;;;;;;;;5055478;28;20033;-74
2021/11/22 03:07:18;;;;;;;26.02;17.35;;;;;;;;;;5051974;28;20056;-74
2021/11/22 03:09:44;;;;;;;27.08;17.33;;;;;;;;;;5055234;28;20025;-74
2021/11/22 03:12:10;;;;;;;29.02;18.05;;;;;;;;;;5037625;28;20144;-74
2021/11/22 03:14:35;;;;;;;31.10;19.50;;;;;;;;;;5055419;28;20167;-74
2021/11/22 03:17:01;;;;;;;32.00;19.45;;;;;;;;;;5037484;28;20128;-74
2021/11/22 03:19:27;;;;;;;32.08;20.67;;;;;;;;;;5037538;28;20033;-74
2021/11/22 03:21:53;;;;;;;28.38;18.85;;;;;;;;;;5055315;28;20055;-74
2021/11/22 03:24:20;;;;;;;30.67;19.58;;;;;;;;;;5055336;28;20453;-75
2021/11/22 03:26:46;;;;;;;31.50;19.65;;;;;;;;;;5055064;28;20124;-74
2021/11/22 03:29:12;;;;;;;30.40;19.25;;;;;;;;;;5055284;28;20521;-74
2021/11/22 03:31:38;;;;;;;30.83;19.40;;;;;;;;;;5055087;28;20148;-74
2021/11/22 03:34:04;;;;;;;30.10;17.88;;;;;;;;;;5054853;28;20036;-75
2021/11/22 03:36:31;;;;;;;33.85;20.10;;;;;;;;;;5054996;28;20532;-75
2021/11/22 03:38:57;;;;;;;30.55;18.65;;;;;;;;;;5054823;28;20029;-74
2021/11/22 03:41:23;;;;;;;30.85;19.40;;;;;;;;;;5054880;28;20029;-74
2021/11/22 03:43:56;;;;;;;33.10;19.92;;;;;;;;;;5054794;28;20397;-71
2021/11/22 03:46:21;;;;;;;28.17;17.90;;;;;;;;;;5037350;28;20064;-71
2021/11/22 03:48:47;;;;;;;32.33;20.08;;;;;;;;;;5054513;28;20073;-71
2021/11/22 03:51:13;;;;;;;35.60;19.65;;;;;;;;;;5036959;28;20098;-73
2021/11/22 03:53:39;;;;;;;33.50;19.30;;;;;;;;;;5054624;28;20504;-73
2021/11/22 03:56:05;;;;;;;32.25;19.98;;;;;;;;;;5054443;28;20041;-73
2021/11/22 03:58:30;;;;;;;34.53;19.95;;;;;;;;;;5054261;28;20083;-73
2021/11/22 04:00:55;;;;;;;31.58;19.58;;;;;;;;;;5036305;28;20573;-74
2021/11/22 04:03:21;;;;;;;34.28;19.73;;;;;;;;;;5053420;28;20033;-74
2021/11/22 04:05:48;;;;;;;30.02;18.75;;;;;;;;;;5054721;28;20063;-74
2021/11/22 04:08:15;;;;;;;33.00;20.67;;;;;;;;;;5054584;28;20477;-74
2021/11/22 04:10:41;;;;;;;33.58;19.58;;;;;;;;;;5054204;28;20489;-74
2021/11/22 04:13:06;;;;;;;37.97;21.83;;;;;;;;;;5054108;28;20044;-75
2021/11/22 04:15:32;;;;;;;31.27;19.20;;;;;;;;;;5054334;28;20401;-75
2021/11/22 04:17:58;;;;;;;36.78;20.98;;;;;;;;;;5036737;28;20453;-74
2021/11/22 04:20:24;;;;;;;33.13;19.63;;;;;;;;;;5036379;28;20131;-74
2021/11/22 04:22:49;;;;;;;32.42;18.98;;;;;;;;;;5054163;28;20040;-74
2021/11/22 04:25:15;;;;;;;38.38;20.85;;;;;;;;;;5054052;28;20167;-74
2021/11/22 04:27:40;;;;;;;36.95;20.42;;;;;;;;;;5054138;28;20033;-73
2021/11/22 04:30:08;;;;;;;32.50;19.02;;;;;;;;;;5053571;28;20060;-72
2021/11/22 04:32:34;;;;;;;39.75;21.75;;;;;;;;;;5053875;28;20025;-72
2021/11/22 04:35:00;;;;;;;39.20;22.42;;;;;;;;;;5053908;28;20056;-73
2021/11/22 04:37:28;;;;;;;39.90;22.45;;;;;;;;;;5053929;28;20033;-73
2021/11/22 04:39:54;;;;;;;36.75;21.23;;;;;;;;;;5053745;28;20467;-70
2021/11/22 04:42:19;;;;;;;35.92;20.05;;;;;;;;;;5053677;28;20113;-71
2021/11/22 04:44:45;;;;;;;34.10;20.50;;;;;;;;;;5053585;28;20037;-71
2021/11/22 04:47:12;;;;;;;38.50;22.05;;;;;;;;;;5053533;28;20406;-71
2021/11/22 04:49:39;;;;;;;38.70;21.88;;;;;;;;;;5036075;28;20045;-71
2021/11/22 04:52:06;;;;;;;33.95;20.35;;;;;;;;;;5053531;28;20384;-71
2021/11/22 04:54:33;;;;;;;39.50;22.88;;;;;;;;;;5035767;28;20404;-71
2021/11/22 04:56:59;;;;;;;35.70;20.27;;;;;;;;;;5053373;28;20389;-71
2021/11/22 04:59:24;;;;;;;38.92;21.15;;;;;;;;;;5053521;28;20047;-70
2021/11/22 05:01:50;;;;;;;38.25;20.55;;;;;;;;;;5053552;28;20652;-69
2021/11/22 05:04:15;;;;;;;37.95;20.05;;;;;;;;;;5053200;28;20033;-69
2021/11/22 05:06:41;;;;;;;41.83;23.15;;;;;;;;;;5052421;28;20364;-71
2021/11/22 05:09:06;;;;;;;42.17;23.25;;;;;;;;;;5052607;28;20104;-72
2021/11/22 05:11:32;;;;;;;44.92;24.52;;;;;;;;;;5052522;28;20021;-70
2021/11/22 05:13:57;;;;;;;44.55;23.58;;;;;;;;;;5051327;28;20037;-69
2021/11/22 05:16:22;;;;;;;42.97;23.30;;;;;;;;;;5053080;28;20496;-70
2021/11/22 05:18:48;;;;;;;48.58;23.98;;;;;;;;;;5053035;28;20107;-70
2021/11/22 05:21:14;;;;;;;43.65;23.45;;;;;;;;;;5034632;28;20052;-71
2021/11/22 05:23:39;;;;;;;43.45;22.05;;;;;;;;;;5052813;28;20067;-70
2021/11/22 05:26:04;;;;;;;46.33;24.33;;;;;;;;;;5053058;28;20039;-70
2021/11/22 05:28:30;;;;;;;48.97;24.75;;;;;;;;;;5053339;28;20076;-70
2021/11/22 05:30:55;;;;;;;46.42;24.42;;;;;;;;;;5053352;28;20090;-70
2021/11/22 05:33:21;;;;;;;49.50;24.77;;;;;;;;;;5053053;28;20048;-70
2021/11/22 05:35:47;;;;;;;41.80;22.02;;;;;;;;;;5053064;28;20052;-71
2021/11/22 05:38:12;;;;;;;46.10;24.85;;;;;;;;;;5052711;28;20065;-70
2021/11/22 05:40:38;;;;;;;48.55;25.00;;;;;;;;;;5035117;28;20064;-70
2021/11/22 05:43:04;;;;;;;47.83;23.80;;;;;;;;;;5052929;28;20049;-70
2021/11/22 05:45:29;;;;;;;44.88;23.13;;;;;;;;;;5052838;28;20025;-70
2021/11/22 05:47:55;;;;;;;46.25;22.33;;;;;;;;;;5052197;28;20103;-70
2021/11/22 05:50:22;;;;;;;49.95;23.85;;;;;;;;;;5051873;28;20036;-70
2021/11/22 05:52:52;;;;;;;47.67;23.20;;;;;;;;;;5052485;28;20060;-70
2021/11/22 05:55:30;;;;;;;40.97;21.80;;;;;;;;;;5052788;28;20122;-69
2021/11/22 05:57:55;;;;;;;41.58;22.58;;;;;;;;;;5034835;28;20052;-69
2021/11/22 06:00:21;;;;;;;43.53;22.60;;;;;;;;;;5052631;28;20025;-69
2021/11/22 06:02:48;;;;;;;45.63;22.45;;;;;;;;;;5052729;28;20539;-70
2021/11/22 06:05:14;;;;;;;46.95;23.35;;;;;;;;;;5052716;28;20036;-70
2021/11/22 06:07:40;;;;;;;46.53;23.75;;;;;;;;;;5052836;28;20041;-70
2021/11/22 06:10:06;;;;;;;41.80;22.10;;;;;;;;;;5052603;28;20017;-69
2021/11/22 06:12:32;;;;;;;44.30;22.83;;;;;;;;;;5052547;28;20052;-69
2021/11/22 06:14:57;;;;;;;46.83;22.63;;;;;;;;;;5052803;28;20472;-70
2021/11/22 06:17:23;;;;;;;45.10;22.60;;;;;;;;;;5052676;28;20102;-70
2021/11/22 06:19:49;;;;;;;41.72;21.55;;;;;;;;;;5052631;28;20064;-70
2021/11/22 06:22:15;;;;;;;38.80;21.33;;;;;;;;;;5052388;28;20041;-70
2021/11/22 06:24:41;;;;;;;35.53;19.25;;;;;;;;;;5052815;28;20031;-70
2021/11/22 06:27:07;;;;;;;37.78;18.77;;;;;;;;;;5056246;28;20059;-70
2021/11/22 06:29:33;;;;;;;36.38;17.90;;;;;;;;;;5056154;28;20472;-69
2021/11/22 06:31:58;;;;;;;35.30;18.55;;;;;;;;;;5056188;28;20036;-69
2021/11/22 06:34:24;;;;;;;38.10;18.70;;;;;;;;;;5056170;28;20124;-69
2021/11/22 06:36:49;;;;;;;39.70;18.73;;;;;;;;;;5055967;28;20044;-69
2021/11/22 06:39:15;;;;;;;36.15;18.80;;;;;;;;;;5056118;28;20025;-69
2021/11/22 06:41:40;;;;;;;37.78;19.05;;;;;;;;;;5038041;28;20033;-69
2021/11/22 06:44:06;;;;;;;40.33;20.65;;;;;;;;;;5056006;28;20025;-69
2021/11/22 06:46:31;;;;;;;39.92;20.05;;;;;;;;;;5055321;28;20118;-69
2021/11/22 06:48:57;;;;;;;42.60;21.10;;;;;;;;;;5055818;28;20053;-69
2021/11/22 06:51:23;;;;;;;40.40;20.52;;;;;;;;;;5055550;28;20071;-69
2021/11/22 06:53:48;;;;;;;40.83;20.90;;;;;;;;;;5055578;28;20033;-63
2021/11/22 06:56:14;;;;;;;42.92;20.80;;;;;;;;;;5055761;28;20044;-70
2021/11/22 06:58:39;;;;;;;38.28;20.02;;;;;;;;;;5055793;28;20036;-70
2021/11/22 07:01:05;;;;;;;41.20;20.02;;;;;;;;;;5055715;28;20068;-70
2021/11/22 07:03:31;;;;;;;37.03;20.08;;;;;;;;;;5055615;28;20029;-70
2021/11/22 07:05:56;;;;;;;35.40;19.45;;;;;;;;;;5055768;28;20033;-70
2021/11/22 07:08:22;;;;;;;36.28;19.20;;;;;;;;;;5055239;28;20033;-70
2021/11/22 07:10:47;;;;;;;42.70;21.38;;;;;;;;;;5055367;28;20128;-70
2021/11/22 07:13:13;;;;;;;35.65;18.88;;;;;;;;;;5055293;28;20428;-72
2021/11/22 07:15:39;;;;;;;31.75;16.98;;;;;;;;;;5055380;28;20037;-72
2021/11/22 07:18:04;;;;;;;28.10;16.52;;;;;;;;;;5055152;28;20036;-72
2021/11/22 07:20:32;;;;;;;26.38;15.52;;;;;;;;;;5055114;28;20083;-72
2021/11/22 07:22:57;;;;;;;22.85;14.32;;;;;;;;;;5055080;28;20476;-72
2021/11/22 07:25:24;;;;;;;23.27;14.65;;;;;;;;;;5054969;28;20029;-72
2021/11/22 07:27:51;;;;;;;23.30;13.82;;;;;;;;;;5055365;28;20462;-72
2021/11/22 07:30:21;;;;;;;22.70;13.57;;;;;;;;;;5055214;28;20043;-72
2021/11/22 07:32:52;;;;;;;22.35;13.82;;;;;;;;;;5037176;28;20053;-72
2021/11/22 07:35:17;;;;;;;;;;;;;;;;;;5037777;28;20041;-72
2021/11/22 07:37:43;;;;;;;17.33;11.25;;;;;;;;;;5054034;28;19912;-71
2021/11/22 07:40:10;;;;;;;18.75;11.65;;;;;;;;;;5055084;28;20053;-71
2021/11/22 07:42:35;;;;;;;18.27;12.27;;;;;;;;;;5054289;28;20048;-71
2021/11/22 07:45:02;;;;;;;19.55;12.38;;;;;;;;;;5054198;28;20069;-71
2021/11/22 07:47:29;;;;;;;19.33;12.73;;;;;;;;;;5054320;28;20063;-71
2021/11/22 07:49:54;;;;;;;18.15;12.00;;;;;;;;;;5054780;28;20072;-71
2021/11/22 07:52:22;;;;;;;15.63;11.27;;;;;;;;;;5054251;28;20041;-71
2021/11/22 07:54:48;;;;;;;16.95;11.15;;;;;;;;;;5054246;28;20037;-71
2021/11/22 07:57:13;;;;;;;15.38;10.57;;;;;;;;;;5054507;28;20029;-71
2021/11/22 07:59:39;;;;;;;13.95;9.80;;;;;;;;;;5054726;28;20033;-71
2021/11/22 08:02:06;;;;;;;14.23;10.65;;;;;;;;;;5054308;28;20465;-71
2021/11/22 08:04:32;;;;;;;26.17;14.30;;;;;;;;;;5036578;28;20032;-71
2021/11/22 08:07:01;;;;;;;47.75;21.25;;;;;;;;;;5054526;28;20372;-71
2021/11/22 08:09:30;;;;;;;598.30;429.80;;;;;;;;;;5036909;28;20377;-71
2021/11/22 08:14:40;;;;;;;563.67;410.38;;;;;;;;;;5054197;28;20447;-71
2021/11/22 08:17:07;;;;;;;140.65;90.53;;;;;;;;;;5054210;28;20036;-71
2021/11/22 08:19:33;;;;;;;70.50;56.90;;;;;;;;;;5054161;28;20036;-71
2021/11/22 08:21:58;;;;;;;482.05;420.25;;;;;;;;;;5053870;28;20496;-71
2021/11/22 08:24:26;;;;;;;196.50;149.27;;;;;;;;;;5053257;28;20029;-71
2021/11/22 08:26:52;;;;;;;349.25;253.80;;;;;;;;;;5054034;28;20449;-71
2021/11/22 08:29:17;;;;;;;173.25;120.20;;;;;;;;;;5053148;28;20040;-71
2021/11/22 08:31:43;;;;;;;63.05;38.35;;;;;;;;;;5053837;28;20041;-71
2021/11/22 08:34:09;;;;;;;135.73;49.60;;;;;;;;;;5053774;28;20481;-71
2021/11/22 08:36:34;;;;;;;25.80;17.45;;;;;;;;;;5053476;28;20040;-71
2021/11/22 08:39:00;;;;;;;150.60;83.22;;;;;;;;;;5053603;28;20386;-71
2021/11/22 08:41:25;;;;;;;946.70;517.78;;;;;;;;;;5053563;28;20033;-71
2021/11/22 08:43:51;;;;;;;731.85;383.25;;;;;;;;;;5053533;28;20044;-71
2021/11/22 08:46:16;;;;;;;334.48;150.48;;;;;;;;;;5053670;28;20384;-71
2021/11/22 08:48:42;;;;;;;192.02;83.22;;;;;;;;;;5053386;28;20373;-71
2021/11/22 08:51:08;;;;;;;712.15;318.75;;;;;;;;;;5053820;28;20120;-71
2021/11/22 08:53:34;;;;;;;599.53;230.07;;;;;;;;;;5053655;28;20056;-71
2021/11/22 08:56:00;;;;;;;658.30;276.25;;;;;;;;;;5053548;28;20037;-71
2021/11/22 08:58:26;;;;;;;945.50;394.17;;;;;;;;;;5053221;28;20045;-71
2021/11/22 09:00:51;;;;;;;1257.60;471.63;;;;;;;;;;5051594;28;20410;-71
2021/11/22 09:03:17;;;;;;;1666.20;582.67;;;;;;;;;;5051673;28;20043;-72
2021/11/22 09:05:43;;;;;;;964.75;371.83;;;;;;;;;;5051645;28;20024;-71
2021/11/22 09:08:11;;;;;;;16.65;8.63;;;;;;;;;;5051682;28;20092;-71
2021/11/22 09:10:37;;;;;;;807.08;307.20;;;;;;;;;;5051733;28;20049;-71
2021/11/22 09:13:03;;;;;;;56.63;29.52;;;;;;;;;;5051471;28;20043;-71
2021/11/22 09:15:28;;;;;;;35.00;15.82;;;;;;;;;;5051370;28;20025;-71
2021/11/22 09:17:55;;;;;;;172.38;59.60;;;;;;;;;;5051698;28;20033;-71
2021/11/22 09:20:20;;;;;;;518.72;187.95;;;;;;;;;;5033717;28;20075;-71
2021/11/22 09:22:47;;;;;;;164.02;60.58;;;;;;;;;;5051426;28;20124;-69
2021/11/22 09:25:12;;;;;;;290.70;130.95;;;;;;;;;;5051543;28;20103;-69
2021/11/22 09:27:38;;;;;;;423.45;174.05;;;;;;;;;;5051363;28;20128;-69
2021/11/22 09:30:05;;;;;;;214.05;83.43;;;;;;;;;;5051437;28;20061;-71
2021/11/22 09:32:32;;;;;;;599.05;280.98;;;;;;;;;;5048477;28;20123;-71
2021/11/22 09:34:58;;;;;;;408.92;184.13;;;;;;;;;;5033348;28;20065;-71
2021/11/22 09:37:24;;;;;;;936.17;477.55;;;;;;;;;;5051319;28;20047;-71
2021/11/22 09:39:57;;;;;;;581.47;309.55;;;;;;;;;;5051267;28;20028;-71
2021/11/22 09:42:23;;;;;;;359.25;199.40;;;;;;;;;;5033409;28;20048;-72
2021/11/22 09:44:49;;;;;;;598.30;318.83;;;;;;;;;;5051146;28;20484;-69
2021/11/22 09:47:15;;;;;;;223.57;111.60;;;;;;;;;;5047810;28;20037;-71
2021/11/22 09:49:41;;;;;;;210.52;108.95;;;;;;;;;;5023393;28;20033;-69
2021/11/22 09:52:07;;;;;;;153.63;81.78;;;;;;;;;;5048146;28;20036;-69
2021/11/22 09:54:34;;;;;;;158.18;93.13;;;;;;;;;;5017457;28;20025;-69
2021/11/22 09:57:01;;;;;;;79.40;52.08;;;;;;;;;;5033972;28;20411;-69
2021/11/22 09:59:27;;;;;;;94.25;63.78;;;;;;;;;;5033818;28;20033;-69
2021/11/22 10:01:53;;;;;;;159.20;88.90;;;;;;;;;;5055556;28;20040;-69
2021/11/22 10:04:19;;;;;;;112.25;72.10;;;;;;;;;;5037740;28;20021;-69
2021/11/22 10:06:50;;;;;;;24.95;16.67;;;;;;;;;;5038293;28;20040;-69
2021/11/22 10:09:48;;;;;;;12.73;10.25;;;;;;;;;;5056487;28;20120;-69
2021/11/22 10:12:22;;;;;;;47.80;32.97;;;;;;;;;;5012230;28;20480;-69
2021/11/22 10:14:52;;;;;;;94.40;62.22;;;;;;;;;;5056295;28;20029;-69
2021/11/22 10:17:21;;;;;;;39.30;28.83;;;;;;;;;;5038370;28;20463;-69
2021/11/22 10:19:47;;;;;;;14.57;8.93;;;;;;;;;;5056133;28;20029;-69
2021/11/22 10:22:16;;;;;;;7.88;5.95;;;;;;;;;;5056197;28;20552;-69
2021/11/22 10:24:42;;;;;;;163.73;85.07;;;;;;;;;;5038334;28;20044;-70
2021/11/22 10:27:07;;;;;;;365.92;178.35;;;;;;;;;;5055288;28;20032;-71
2021/11/22 10:29:34;;;;;;;320.42;144.35;;;;;;;;;;5056130;28;20076;-69
2021/11/22 10:32:01;;;;;;;421.20;202.38;;;;;;;;;;5056029;28;20033;-70
2021/11/22 10:34:26;;;;;;;184.80;75.80;;;;;;;;;;5055977;28;20037;-70
2021/11/22 10:37:02;;;;;;;188.95;68.28;;;;;;;;;;5055620;28;20547;-70
2021/11/22 10:39:30;;;;;;;626.78;252.23;;;;;;;;;;5055772;28;20456;-69
2021/11/22 10:41:55;;;;;;;648.58;256.33;;;;;;;;;;5056004;28;20535;-69
2021/11/22 10:44:26;;;;;;;186.88;66.90;;;;;;;;;;5055827;28;20029;-70
2021/11/22 10:46:58;;;;;;;22.23;10.05;;;;;;;;;;5037586;28;20037;-70
2021/11/22 10:49:34;;;;;;;592.08;199.82;;;;;;;;;;5055667;28;20112;-70
2021/11/22 10:52:35;;;;;;;515.80;175.23;;;;;;;;;;5038105;28;20059;-70
2021/11/22 10:54:59;;;;;;;315.45;89.47;;;;;;;;;;5055771;28;20505;-69
2021/11/22 10:57:34;;;;;;;100.40;31.85;;;;;;;;;;5055674;28;20116;-70
2021/11/22 10:59:59;;;;;;;94.80;28.88;;;;;;;;;;5055022;28;20084;-70
2021/11/22 11:02:40;;;;;;;340.00;87.95;;;;;;;;;;5055245;28;20029;-70
2021/11/22 11:05:06;;;;;;;299.60;73.93;;;;;;;;;;5055384;28;20473;-70
2021/11/22 11:07:32;;;;;;;81.32;26.23;;;;;;;;;;5055491;28;20075;-70
2021/11/22 11:09:58;;;;;;;35.42;12.52;;;;;;;;;;5055668;28;20037;-70
2021/11/22 11:12:24;;;;;;;17.77;7.85;;;;;;;;;;5054252;28;20087;-70
2021/11/22 11:14:52;;;;;;;1250.25;403.63;;;;;;;;;;5055228;28;20140;-70
2021/11/22 11:17:25;;;;;;;704.63;230.23;;;;;;;;;;5055150;28;20503;-70
2021/11/22 11:19:55;;;;;;;563.72;179.63;;;;;;;;;;5055169;28;20095;-70
2021/11/22 11:22:22;;;;;;;482.65;135.43;;;;;;;;;;5037104;28;20029;-70
2021/11/22 11:24:48;;;;;;;155.15;49.60;;;;;;;;;;5055396;28;20041;-70
2021/11/22 11:27:14;;;;;;;16.23;10.63;;;;;;;;;;5054598;28;20029;-70
2021/11/22 11:29:40;;;;;;;260.73;85.05;;;;;;;;;;5055027;28;20515;-70
2021/11/22 11:32:05;;;;;;;462.40;156.65;;;;;;;;;;5055123;28;20097;-71
2021/11/22 11:34:32;;;;;;;482.80;163.88;;;;;;;;;;5054865;28;20190;-72
2021/11/22 11:37:20;;;;;;;340.00;130.15;;;;;;;;;;5055100;28;20075;-72
2021/11/22 11:39:45;;;;;;;760.30;325.05;;;;;;;;;;5055096;28;20044;-72
2021/11/22 11:42:20;;;;;;;370.30;133.40;;;;;;;;;;5054866;28;20033;-72
2021/11/22 11:44:48;;;;;;;484.73;192.52;;;;;;;;;;5054595;28;20473;-72
2021/11/22 11:47:19;;;;;;;639.92;289.80;;;;;;;;;;5054382;28;20083;-72
2021/11/22 11:49:45;;;;;;;367.13;154.25;;;;;;;;;;5054409;28;20040;-72
2021/11/22 11:52:20;;;;;;;106.00;45.95;;;;;;;;;;5054563;28;20036;-72
2021/11/22 11:54:45;;;;;;;89.93;43.40;;;;;;;;;;5054431;28;20485;-72
2021/11/22 11:57:11;;;;;;;112.10;52.80;;;;;;;;;;5054002;28;20036;-72
2021/11/22 11:59:40;;;;;;;406.35;219.32;;;;;;;;;;5054169;28;20037;-72
2021/11/22 12:02:08;;;;;;;267.02;148.50;;;;;;;;;;5054239;28;20116;-72
2021/11/22 12:04:43;;;;;;;66.18;38.25;;;;;;;;;;5054417;28;20048;-72
2021/11/22 12:07:09;;;;;;;68.82;28.85;;;;;;;;;;5036531;28;20120;-72
2021/11/22 12:09:36;;;;;;;150.30;40.15;;;;;;;;;;5054584;28;20021;-72
2021/11/22 12:12:07;;;;;;;175.02;52.47;;;;;;;;;;5054239;28;20044;-72
2021/11/22 12:14:48;;;;;;;96.97;34.35;;;;;;;;;;5053513;28;20033;-72
2021/11/22 12:17:34;;;;;;;30.05;14.65;;;;;;;;;;5053017;28;20098;-71
2021/11/22 12:20:04;;;;;;;12.82;7.50;;;;;;;;;;5053034;28;20151;-71
2021/11/22 12:22:30;;;;;;;;;;;;;;;;;;5053084;28;20388;-72
2021/11/22 12:24:56;;;;;;;30.17;13.23;;;;;;;;;;5053746;28;19911;-71
2021/11/22 12:27:27;;;;;;;17.63;8.77;;;;;;;;;;5053638;28;20039;-71
2021/11/22 12:29:53;;;;;;;13.75;9.50;;;;;;;;;;5052310;28;20114;-71
2021/11/22 12:32:29;;;;;;;12.23;8.10;;;;;;;;;;5052765;28;20028;-71
2021/11/22 12:34:57;;;;;;;7.40;6.35;;;;;;;;;;5053542;28;20036;-71
2021/11/22 12:37:25;;;;;;;12.30;7.90;;;;;;;;;;5053328;28;20490;-72
2021/11/22 12:39:51;;;;;;;6.32;5.38;;;;;;;;;;5053777;28;20119;-71
2021/11/22 12:42:19;;;;;;;4.85;4.45;;;;;;;;;;5053886;28;20077;-71
2021/11/22 12:44:55;;;;;;;6.07;5.35;;;;;;;;;;5054197;28;20116;-70
2021/11/22 12:47:26;;;;;;;12.25;7.32;;;;;;;;;;5035171;28;20397;-71
2021/11/22 12:50:04;;;;;;;11.05;8.30;;;;;;;;;;5053535;28;20072;-71
2021/11/22 12:52:31;;;;;;;11.75;6.75;;;;;;;;;;5053159;28;20041;-71
2021/11/22 12:54:56;;;;;;;7.47;5.57;;;;;;;;;;5053376;28;20029;-71
2021/11/22 12:57:27;;;;;;;5.18;4.63;;;;;;;;;;5053642;28;20477;-70
2021/11/22 13:00:06;;;;;;;24.67;11.75;;;;;;;;;;5053666;28;20122;-71
2021/11/22 13:02:39;;;;;;;12.80;7.60;;;;;;;;;;5052516;28;20036;-70
2021/11/22 13:05:04;;;;;;;7.60;5.35;;;;;;;;;;5053257;28;20029;-71
2021/11/22 13:07:33;;;;;;;7.95;6.72;;;;;;;;;;5052991;28;20163;-71
2021/11/22 13:09:59;;;;;;;10.25;7.97;;;;;;;;;;5053306;28;20488;-71
2021/11/22 13:12:40;;;;;;;17.60;10.60;;;;;;;;;;5053329;28;20033;-70
2021/11/22 13:17:53;;;;;;;23.25;13.13;;;;;;;;;;5021642;28;19920;-71
2021/11/22 13:20:19;;;;;;;13.07;9.48;;;;;;;;;;5053087;28;20029;-70
2021/11/22 13:22:44;;;;;;;8.43;6.28;;;;;;;;;;5053190;28;20045;-71
2021/11/22 13:25:22;;;;;;;10.25;6.97;;;;;;;;;;5051364;28;20044;-70
2021/11/22 13:28:07;;;;;;;10.60;8.20;;;;;;;;;;5053086;28;20056;-70
2021/11/22 13:30:34;;;;;;;9.05;7.68;;;;;;;;;;5052783;28;20045;-70
2021/11/22 13:32:59;;;;;;;9.68;7.10;;;;;;;;;;5052871;28;20037;-71
2021/11/22 13:35:25;;;;;;;11.50;7.82;;;;;;;;;;5054256;28;20393;-71
2021/11/22 13:38:07;;;;;;;10.43;8.68;;;;;;;;;;5056572;28;20102;-70
2021/11/22 13:40:33;;;;;;;10.88;9.20;;;;;;;;;;5056677;28;20045;-70
2021/11/22 13:43:02;;;;;;;18.75;13.48;;;;;;;;;;5057259;28;20027;-70
2021/11/22 13:45:28;;;;;;;105.07;34.05;;;;;;;;;;5056922;28;20033;-71
2021/11/22 13:47:54;;;;;;;220.02;120.10;;;;;;;;;;5056462;28;20045;-71
2021/11/22 13:50:19;;;;;;;48.33;32.72;;;;;;;;;;5056701;28;20033;-71
2021/11/22 13:52:45;;;;;;;81.20;51.55;;;;;;;;;;5056801;28;20029;-70
2021/11/22 13:55:10;;;;;;;55.15;30.90;;;;;;;;;;5056310;28;20044;-70
2021/11/22 13:57:35;;;;;;;45.20;25.90;;;;;;;;;;5056224;28;20081;-70
2021/11/22 14:00:03;;;;;;;52.50;30.67;;;;;;;;;;5056763;28;20135;-70
2021/11/22 14:02:37;;;;;;;40.60;25.23;;;;;;;;;;5040207;28;20123;-70
2021/11/22 14:05:03;;;;;;;40.58;27.23;;;;;;;;;;5056460;28;20124;-70
2021/11/22 14:07:41;;;;;;;29.88;20.85;;;;;;;;;;5038617;28;20036;-72
2021/11/22 14:10:07;;;;;;;18.00;10.90;;;;;;;;;;5056666;28;20064;-71
2021/11/22 14:12:40;;;;;;;9.35;8.40;;;;;;;;;;5056249;28;20055;-72
2021/11/22 14:15:20;;;;;;;155.73;82.70;;;;;;;;;;5056125;28;20094;-72
2021/11/22 14:17:49;;;;;;;36.75;28.60;;;;;;;;;;5056422;28;20044;-72
2021/11/22 14:20:18;;;;;;;19.52;13.77;;;;;;;;;;5055904;28;20040;-72